sensor_id;sensor_type;location;lat;lon;timestamp;temperature;humidity
47618;DHT22;33336;36.728;-4.414;2022-12-07T00:03:09;15.40;99.90
47618;DHT22;33336;36.728;-4.414;2022-12-07T00:08:13;15.50;99.90
47618;DHT22;33336;36.728;-4.414;2022-12-07T00:13:17;15.40;99.90
47618;DHT22;33336;36.728;-4.414;2022-12-07T00:18:21;15.30;99.90
47618;DHT22;33336;36.728;-4.414;2022-12-07T00:23:24;15.40;99.90
47618;DHT22;33336;36.728;-4.414;2022-12-07T00:28:28;15.40;99.90
47618;DHT22;33336;36.728;-4.414;2022-12-07T00:33:32;15.30;99.90
47618;DHT22;33336;36.728;-4.414;2022-12-07T00:38:37;15.50;99.90
47618;DHT22;33336;36.728;-4.414;2022-12-07T00:43:42;15.50;99.90
47618;DHT22;33336;36.728;-4.414;2022-12-07T00:48:47;15.50;99.90
47618;DHT22;33336;36.728;-4.414;2022-12-07T00:53:50;15.50;99.90
47618;DHT22;33336;36.728;-4.414;2022-12-07T00:58:57;15.50;99.90
47618;DHT22;33336;36.728;-4.414;2022-12-07T01:04:00;15.40;99.90
47618;DHT22;33336;36.728;-4.414;2022-12-07T01:09:04;15.20;99.90
47618;DHT22;33336;36.728;-4.414;2022-12-07T01:14:09;15.00;99.90
47618;DHT22;33336;36.728;-4.414;2022-12-07T01:19:12;15.20;99.90
47618;DHT22;33336;36.728;-4.414;2022-12-07T01:24:15;15.30;99.90
47618;DHT22;33336;36.728;-4.414;2022-12-07T01:29:19;15.30;99.90
47618;DHT22;33336;36.728;-4.414;2022-12-07T01:34:22;15.20;99.90
47618;DHT22;33336;36.728;-4.414;2022-12-07T01:39:26;15.30;99.90
47618;DHT22;33336;36.728;-4.414;2022-12-07T01:44:31;15.30;99.90
47618;DHT22;33336;36.728;-4.414;2022-12-07T01:49:37;15.30;99.90
47618;DHT22;33336;36.728;-4.414;2022-12-07T01:54:40;15.20;99.90
47618;DHT22;33336;36.728;-4.414;2022-12-07T01:59:49;15.20;99.90
47618;DHT22;33336;36.728;-4.414;2022-12-07T02:04:54;14.90;99.90
47618;DHT22;33336;36.728;-4.414;2022-12-07T02:10:12;14.80;99.90
47618;DHT22;33336;36.728;-4.414;2022-12-07T02:15:17;14.60;99.90
47618;DHT22;33336;36.728;-4.414;2022-12-07T02:20:27;14.50;99.90
47618;DHT22;33336;36.728;-4.414;2022-12-07T02:25:52;14.80;99.90
47618;DHT22;33336;36.728;-4.414;2022-12-07T02:31:04;14.60;99.90
47618;DHT22;33336;36.728;-4.414;2022-12-07T02:36:12;14.70;99.90
47618;DHT22;33336;36.728;-4.414;2022-12-07T02:41:19;14.80;99.90
47618;DHT22;33336;36.728;-4.414;2022-12-07T02:46:28;14.80;99.90
47618;DHT22;33336;36.728;-4.414;2022-12-07T02:51:34;14.80;99.90
47618;DHT22;33336;36.728;-4.414;2022-12-07T02:56:47;14.70;99.90
47618;DHT22;33336;36.728;-4.414;2022-12-07T03:02:00;14.80;99.90
47618;DHT22;33336;36.728;-4.414;2022-12-07T03:07:11;14.60;99.90
47618;DHT22;33336;36.728;-4.414;2022-12-07T03:12:24;14.50;99.90
47618;DHT22;33336;36.728;-4.414;2022-12-07T03:17:32;14.60;99.90
47618;DHT22;33336;36.728;-4.414;2022-12-07T03:22:37;14.50;99.90
47618;DHT22;33336;36.728;-4.414;2022-12-07T03:27:45;14.60;99.90
47618;DHT22;33336;36.728;-4.414;2022-12-07T03:32:56;14.30;99.90
47618;DHT22;33336;36.728;-4.414;2022-12-07T03:38:02;14.40;99.90
47618;DHT22;33336;36.728;-4.414;2022-12-07T03:43:10;14.40;99.90
47618;DHT22;33336;36.728;-4.414;2022-12-07T03:48:22;14.50;99.90
47618;DHT22;33336;36.728;-4.414;2022-12-07T03:53:32;14.40;99.90
47618;DHT22;33336;36.728;-4.414;2022-12-07T03:58:37;14.50;99.90
47618;DHT22;33336;36.728;-4.414;2022-12-07T04:03:42;14.40;99.90
47618;DHT22;33336;36.728;-4.414;2022-12-07T04:08:45;14.50;99.80
47618;DHT22;33336;36.728;-4.414;2022-12-07T04:13:49;14.50;99.70
47618;DHT22;33336;36.728;-4.414;2022-12-07T04:19:11;14.20;99.90
47618;DHT22;33336;36.728;-4.414;2022-12-07T04:24:14;14.30;99.90
47618;DHT22;33336;36.728;-4.414;2022-12-07T04:29:18;14.30;99.90
47618;DHT22;33336;36.728;-4.414;2022-12-07T04:34:22;14.30;99.90
47618;DHT22;33336;36.728;-4.414;2022-12-07T04:39:27;14.30;99.90
47618;DHT22;33336;36.728;-4.414;2022-12-07T04:44:31;14.30;99.90
47618;DHT22;33336;36.728;-4.414;2022-12-07T04:49:35;14.30;99.90
47618;DHT22;33336;36.728;-4.414;2022-12-07T04:54:39;14.30;99.90
47618;DHT22;33336;36.728;-4.414;2022-12-07T04:59:42;14.20;99.70
47618;DHT22;33336;36.728;-4.414;2022-12-07T05:04:46;14.30;99.80
47618;DHT22;33336;36.728;-4.414;2022-12-07T05:09:49;14.20;99.90
47618;DHT22;33336;36.728;-4.414;2022-12-07T05:14:53;14.20;99.70
47618;DHT22;33336;36.728;-4.414;2022-12-07T05:19:57;14.10;99.90
47618;DHT22;33336;36.728;-4.414;2022-12-07T05:25:01;14.10;99.60
47618;DHT22;33336;36.728;-4.414;2022-12-07T05:30:05;14.10;99.60
47618;DHT22;33336;36.728;-4.414;2022-12-07T05:35:10;14.10;99.30
47618;DHT22;33336;36.728;-4.414;2022-12-07T05:40:13;14.00;99.60
47618;DHT22;33336;36.728;-4.414;2022-12-07T05:45:17;13.90;99.50
47618;DHT22;33336;36.728;-4.414;2022-12-07T05:50:21;13.90;99.40
47618;DHT22;33336;36.728;-4.414;2022-12-07T05:55:25;14.10;99.40
47618;DHT22;33336;36.728;-4.414;2022-12-07T06:00:28;14.10;99.30
47618;DHT22;33336;36.728;-4.414;2022-12-07T06:05:32;14.10;99.30
47618;DHT22;33336;36.728;-4.414;2022-12-07T06:10:35;14.10;99.40
47618;DHT22;33336;36.728;-4.414;2022-12-07T06:15:39;14.00;99.30
47618;DHT22;33336;36.728;-4.414;2022-12-07T06:20:43;14.00;99.30
47618;DHT22;33336;36.728;-4.414;2022-12-07T06:25:47;14.00;99.40
47618;DHT22;33336;36.728;-4.414;2022-12-07T06:30:57;13.90;99.60
47618;DHT22;33336;36.728;-4.414;2022-12-07T06:36:01;13.90;99.60
47618;DHT22;33336;36.728;-4.414;2022-12-07T06:41:05;13.90;99.60
47618;DHT22;33336;36.728;-4.414;2022-12-07T06:46:09;13.90;99.60
47618;DHT22;33336;36.728;-4.414;2022-12-07T06:51:13;13.70;99.70
47618;DHT22;33336;36.728;-4.414;2022-12-07T06:56:17;13.80;99.70
47618;DHT22;33336;36.728;-4.414;2022-12-07T07:01:20;13.90;99.90
47618;DHT22;33336;36.728;-4.414;2022-12-07T07:06:25;13.70;99.90
47618;DHT22;33336;36.728;-4.414;2022-12-07T07:11:27;13.70;99.90
47618;DHT22;33336;36.728;-4.414;2022-12-07T07:16:31;13.70;99.90
47618;DHT22;33336;36.728;-4.414;2022-12-07T07:21:36;13.60;99.90
47618;DHT22;33336;36.728;-4.414;2022-12-07T07:26:39;13.60;99.90
47618;DHT22;33336;36.728;-4.414;2022-12-07T07:31:41;13.70;99.90
47618;DHT22;33336;36.728;-4.414;2022-12-07T07:36:46;13.80;99.90
47618;DHT22;33336;36.728;-4.414;2022-12-07T07:41:49;13.80;99.90
47618;DHT22;33336;36.728;-4.414;2022-12-07T07:46:53;13.90;99.80
47618;DHT22;33336;36.728;-4.414;2022-12-07T07:51:57;13.90;99.90
47618;DHT22;33336;36.728;-4.414;2022-12-07T07:57:01;13.90;99.90
47618;DHT22;33336;36.728;-4.414;2022-12-07T08:02:04;14.10;99.90
47618;DHT22;33336;36.728;-4.414;2022-12-07T08:07:08;14.20;99.90
47618;DHT22;33336;36.728;-4.414;2022-12-07T08:12:11;14.20;99.90
47618;DHT22;33336;36.728;-4.414;2022-12-07T08:17:15;14.30;99.60
47618;DHT22;33336;36.728;-4.414;2022-12-07T08:22:19;14.50;99.30
47618;DHT22;33336;36.728;-4.414;2022-12-07T08:27:23;14.60;99.40
47618;DHT22;33336;36.728;-4.414;2022-12-07T08:32:28;14.60;99.40
47618;DHT22;33336;36.728;-4.414;2022-12-07T08:37:33;14.50;99.40
47618;DHT22;33336;36.728;-4.414;2022-12-07T08:42:36;14.70;99.50
47618;DHT22;33336;36.728;-4.414;2022-12-07T08:47:46;15.00;99.30
47618;DHT22;33336;36.728;-4.414;2022-12-07T08:52:53;15.20;98.80
47618;DHT22;33336;36.728;-4.414;2022-12-07T08:57:58;15.40;98.80
47618;DHT22;33336;36.728;-4.414;2022-12-07T09:03:01;15.70;98.40
47618;DHT22;33336;36.728;-4.414;2022-12-07T09:08:06;15.60;98.30
47618;DHT22;33336;36.728;-4.414;2022-12-07T09:13:10;15.70;98.50
47618;DHT22;33336;36.728;-4.414;2022-12-07T09:18:13;16.10;98.40
47618;DHT22;33336;36.728;-4.414;2022-12-07T09:23:17;16.30;97.70
47618;DHT22;33336;36.728;-4.414;2022-12-07T09:28:21;16.10;97.40
47618;DHT22;33336;36.728;-4.414;2022-12-07T09:33:24;15.80;97.50
47618;DHT22;33336;36.728;-4.414;2022-12-07T09:38:29;15.60;97.80
47618;DHT22;33336;36.728;-4.414;2022-12-07T09:43:34;15.70;97.90
47618;DHT22;33336;36.728;-4.414;2022-12-07T09:48:39;15.90;97.90
47618;DHT22;33336;36.728;-4.414;2022-12-07T09:53:44;16.40;97.90
47618;DHT22;33336;36.728;-4.414;2022-12-07T09:58:48;16.80;97.90
47618;DHT22;33336;36.728;-4.414;2022-12-07T10:03:54;17.00;97.50
47618;DHT22;33336;36.728;-4.414;2022-12-07T10:08:59;17.20;97.20
47618;DHT22;33336;36.728;-4.414;2022-12-07T10:14:11;17.40;97.10
47618;DHT22;33336;36.728;-4.414;2022-12-07T10:19:22;17.60;96.90
47618;DHT22;33336;36.728;-4.414;2022-12-07T10:24:27;17.80;96.50
47618;DHT22;33336;36.728;-4.414;2022-12-07T10:29:33;17.80;95.90
47618;DHT22;33336;36.728;-4.414;2022-12-07T10:34:38;17.90;95.90
47618;DHT22;33336;36.728;-4.414;2022-12-07T10:39:44;18.10;94.80
47618;DHT22;33336;36.728;-4.414;2022-12-07T10:44:47;17.90;95.50
47618;DHT22;33336;36.728;-4.414;2022-12-07T10:50:19;17.80;95.00
47618;DHT22;33336;36.728;-4.414;2022-12-07T10:55:34;18.20;95.10
47618;DHT22;33336;36.728;-4.414;2022-12-07T11:00:52;18.10;95.60
47618;DHT22;33336;36.728;-4.414;2022-12-07T11:06:09;18.00;96.00
47618;DHT22;33336;36.728;-4.414;2022-12-07T11:11:21;18.90;95.60
47618;DHT22;33336;36.728;-4.414;2022-12-07T11:16:35;19.50;94.80
47618;DHT22;33336;36.728;-4.414;2022-12-07T11:21:48;19.10;94.40
47618;DHT22;33336;36.728;-4.414;2022-12-07T11:27:11;18.70;94.60
47618;DHT22;33336;36.728;-4.414;2022-12-07T11:32:26;18.60;94.50
47618;DHT22;33336;36.728;-4.414;2022-12-07T11:37:34;18.90;94.50
47618;DHT22;33336;36.728;-4.414;2022-12-07T11:42:42;18.50;94.80
47618;DHT22;33336;36.728;-4.414;2022-12-07T11:47:48;18.80;94.50
47618;DHT22;33336;36.728;-4.414;2022-12-07T11:52:58;19.40;94.70
47618;DHT22;33336;36.728;-4.414;2022-12-07T11:58:18;20.30;94.30
47618;DHT22;33336;36.728;-4.414;2022-12-07T12:03:30;20.80;95.40
47618;DHT22;33336;36.728;-4.414;2022-12-07T12:08:35;21.00;95.60
47618;DHT22;33336;36.728;-4.414;2022-12-07T12:14:14;21.10;95.20
47618;DHT22;33336;36.728;-4.414;2022-12-07T12:19:32;21.00;95.20
47618;DHT22;33336;36.728;-4.414;2022-12-07T12:24:38;19.90;96.40
47618;DHT22;33336;36.728;-4.414;2022-12-07T12:29:43;20.00;97.10
47618;DHT22;33336;36.728;-4.414;2022-12-07T12:35:03;20.00;96.50
47618;DHT22;33336;36.728;-4.414;2022-12-07T12:40:43;19.90;96.40
47618;DHT22;33336;36.728;-4.414;2022-12-07T12:45:47;20.70;96.10
47618;DHT22;33336;36.728;-4.414;2022-12-07T12:56:40;21.30;95.70
47618;DHT22;33336;36.728;-4.414;2022-12-07T13:01:47;20.40;96.80
47618;DHT22;33336;36.728;-4.414;2022-12-07T13:06:50;21.40;96.00
47618;DHT22;33336;36.728;-4.414;2022-12-07T13:12:04;21.80;95.10
47618;DHT22;33336;36.728;-4.414;2022-12-07T13:17:10;21.80;95.40
47618;DHT22;33336;36.728;-4.414;2022-12-07T13:22:46;21.90;95.20
47618;DHT22;33336;36.728;-4.414;2022-12-07T13:27:56;22.10;95.10
47618;DHT22;33336;36.728;-4.414;2022-12-07T13:33:03;21.70;95.40
47618;DHT22;33336;36.728;-4.414;2022-12-07T13:38:18;21.70;95.10
47618;DHT22;33336;36.728;-4.414;2022-12-07T13:43:22;20.80;96.70
47618;DHT22;33336;36.728;-4.414;2022-12-07T13:48:31;20.50;97.50
47618;DHT22;33336;36.728;-4.414;2022-12-07T13:53:46;20.40;96.70
47618;DHT22;33336;36.728;-4.414;2022-12-07T13:58:50;19.30;98.70
47618;DHT22;33336;36.728;-4.414;2022-12-07T14:03:55;19.10;99.10
47618;DHT22;33336;36.728;-4.414;2022-12-07T14:09:09;19.00;99.00
47618;DHT22;33336;36.728;-4.414;2022-12-07T14:14:20;19.40;98.20
47618;DHT22;33336;36.728;-4.414;2022-12-07T14:19:49;19.40;98.70
47618;DHT22;33336;36.728;-4.414;2022-12-07T14:25:19;19.80;98.30
47618;DHT22;33336;36.728;-4.414;2022-12-07T14:30:23;20.20;98.10
47618;DHT22;33336;36.728;-4.414;2022-12-07T14:35:28;20.30;97.70
47618;DHT22;33336;36.728;-4.414;2022-12-07T14:40:32;20.10;97.90
47618;DHT22;33336;36.728;-4.414;2022-12-07T14:45:35;20.00;98.80
47618;DHT22;33336;36.728;-4.414;2022-12-07T14:50:42;20.10;98.50
47618;DHT22;33336;36.728;-4.414;2022-12-07T14:55:47;19.50;99.00
47618;DHT22;33336;36.728;-4.414;2022-12-07T15:00:50;19.70;99.00
47618;DHT22;33336;36.728;-4.414;2022-12-07T15:05:55;19.80;98.70
47618;DHT22;33336;36.728;-4.414;2022-12-07T15:10:58;19.90;98.50
47618;DHT22;33336;36.728;-4.414;2022-12-07T15:16:02;19.90;99.20
47618;DHT22;33336;36.728;-4.414;2022-12-07T15:21:11;19.40;99.60
47618;DHT22;33336;36.728;-4.414;2022-12-07T15:26:15;19.50;99.90
47618;DHT22;33336;36.728;-4.414;2022-12-07T15:31:18;19.60;99.90
47618;DHT22;33336;36.728;-4.414;2022-12-07T15:36:26;19.60;99.90
47618;DHT22;33336;36.728;-4.414;2022-12-07T15:41:29;19.50;99.90
47618;DHT22;33336;36.728;-4.414;2022-12-07T15:46:36;18.90;99.90
47618;DHT22;33336;36.728;-4.414;2022-12-07T15:51:41;19.00;99.90
47618;DHT22;33336;36.728;-4.414;2022-12-07T15:56:45;19.10;99.90
47618;DHT22;33336;36.728;-4.414;2022-12-07T16:01:49;19.20;99.90
47618;DHT22;33336;36.728;-4.414;2022-12-07T16:06:53;18.50;99.90
47618;DHT22;33336;36.728;-4.414;2022-12-07T16:11:56;18.10;99.90
47618;DHT22;33336;36.728;-4.414;2022-12-07T16:16:59;18.00;99.90
47618;DHT22;33336;36.728;-4.414;2022-12-07T16:22:04;17.80;99.90
47618;DHT22;33336;36.728;-4.414;2022-12-07T16:27:07;18.10;99.90
47618;DHT22;33336;36.728;-4.414;2022-12-07T16:32:10;18.30;99.90
47618;DHT22;33336;36.728;-4.414;2022-12-07T16:37:14;18.40;99.90
47618;DHT22;33336;36.728;-4.414;2022-12-07T16:42:17;18.50;99.90
47618;DHT22;33336;36.728;-4.414;2022-12-07T16:47:20;18.40;99.90
47618;DHT22;33336;36.728;-4.414;2022-12-07T16:52:25;18.40;99.90
47618;DHT22;33336;36.728;-4.414;2022-12-07T16:57:30;18.50;99.90
47618;DHT22;33336;36.728;-4.414;2022-12-07T17:02:33;18.40;99.90
47618;DHT22;33336;36.728;-4.414;2022-12-07T17:07:38;18.10;99.90
47618;DHT22;33336;36.728;-4.414;2022-12-07T17:12:41;17.90;99.90
47618;DHT22;33336;36.728;-4.414;2022-12-07T17:17:45;18.00;99.90
47618;DHT22;33336;36.728;-4.414;2022-12-07T17:22:50;17.90;99.90
47618;DHT22;33336;36.728;-4.414;2022-12-07T17:27:53;18.00;99.90
47618;DHT22;33336;36.728;-4.414;2022-12-07T17:32:56;18.00;99.90
47618;DHT22;33336;36.728;-4.414;2022-12-07T17:38:01;17.90;99.90
47618;DHT22;33336;36.728;-4.414;2022-12-07T17:43:04;18.00;99.90
47618;DHT22;33336;36.728;-4.414;2022-12-07T17:48:07;18.00;99.90
47618;DHT22;33336;36.728;-4.414;2022-12-07T17:53:12;18.00;99.90
47618;DHT22;33336;36.728;-4.414;2022-12-07T17:58:15;17.80;99.90
47618;DHT22;33336;36.728;-4.414;2022-12-07T18:03:18;17.80;99.90
47618;DHT22;33336;36.728;-4.414;2022-12-07T18:08:23;17.60;99.90
47618;DHT22;33336;36.728;-4.414;2022-12-07T18:13:27;17.80;99.90
47618;DHT22;33336;36.728;-4.414;2022-12-07T18:18:39;17.90;99.90
47618;DHT22;33336;36.728;-4.414;2022-12-07T18:23:46;17.80;99.90
47618;DHT22;33336;36.728;-4.414;2022-12-07T18:28:49;17.80;99.90
47618;DHT22;33336;36.728;-4.414;2022-12-07T18:33:52;17.60;99.90
47618;DHT22;33336;36.728;-4.414;2022-12-07T18:38:57;17.80;99.90
47618;DHT22;33336;36.728;-4.414;2022-12-07T18:44:03;17.80;99.90
47618;DHT22;33336;36.728;-4.414;2022-12-07T18:49:06;17.80;99.90
47618;DHT22;33336;36.728;-4.414;2022-12-07T18:54:11;17.70;99.90
47618;DHT22;33336;36.728;-4.414;2022-12-07T18:59:14;17.70;99.90
47618;DHT22;33336;36.728;-4.414;2022-12-07T19:04:35;17.70;99.90
47618;DHT22;33336;36.728;-4.414;2022-12-07T19:09:40;17.50;99.90
47618;DHT22;33336;36.728;-4.414;2022-12-07T19:14:44;17.40;99.90
47618;DHT22;33336;36.728;-4.414;2022-12-07T19:19:47;17.50;99.90
47618;DHT22;33336;36.728;-4.414;2022-12-07T19:24:52;17.60;99.90
47618;DHT22;33336;36.728;-4.414;2022-12-07T19:29:55;17.70;99.90
47618;DHT22;33336;36.728;-4.414;2022-12-07T19:34:58;17.60;99.90
47618;DHT22;33336;36.728;-4.414;2022-12-07T19:40:02;17.60;99.90
47618;DHT22;33336;36.728;-4.414;2022-12-07T19:45:07;17.60;99.90
47618;DHT22;33336;36.728;-4.414;2022-12-07T19:50:13;17.60;99.90
47618;DHT22;33336;36.728;-4.414;2022-12-07T19:55:17;17.60;99.90
47618;DHT22;33336;36.728;-4.414;2022-12-07T20:00:20;17.70;99.90
47618;DHT22;33336;36.728;-4.414;2022-12-07T20:05:23;17.70;99.90
47618;DHT22;33336;36.728;-4.414;2022-12-07T20:10:28;17.70;99.90
47618;DHT22;33336;36.728;-4.414;2022-12-07T20:15:31;17.70;99.90
47618;DHT22;33336;36.728;-4.414;2022-12-07T20:20:34;17.70;99.90
47618;DHT22;33336;36.728;-4.414;2022-12-07T20:25:39;17.60;99.90
47618;DHT22;33336;36.728;-4.414;2022-12-07T20:30:46;17.60;99.90
47618;DHT22;33336;36.728;-4.414;2022-12-07T20:35:48;17.60;99.90
47618;DHT22;33336;36.728;-4.414;2022-12-07T20:40:57;17.70;99.90
47618;DHT22;33336;36.728;-4.414;2022-12-07T20:46:00;17.60;99.90
47618;DHT22;33336;36.728;-4.414;2022-12-07T20:51:04;17.70;99.90
47618;DHT22;33336;36.728;-4.414;2022-12-07T20:56:16;17.70;99.90
47618;DHT22;33336;36.728;-4.414;2022-12-07T21:01:19;17.60;99.90
47618;DHT22;33336;36.728;-4.414;2022-12-07T21:06:24;17.60;99.90
47618;DHT22;33336;36.728;-4.414;2022-12-07T21:11:30;17.60;99.90
47618;DHT22;33336;36.728;-4.414;2022-12-07T21:16:58;17.60;99.90
47618;DHT22;33336;36.728;-4.414;2022-12-07T21:22:00;17.50;99.90
47618;DHT22;33336;36.728;-4.414;2022-12-07T21:27:06;17.30;99.90
47618;DHT22;33336;36.728;-4.414;2022-12-07T21:32:10;17.30;99.90
47618;DHT22;33336;36.728;-4.414;2022-12-07T21:37:13;17.30;99.90
47618;DHT22;33336;36.728;-4.414;2022-12-07T21:42:18;17.30;99.90
47618;DHT22;33336;36.728;-4.414;2022-12-07T21:47:21;17.30;99.90
47618;DHT22;33336;36.728;-4.414;2022-12-07T21:52:24;17.40;99.90
47618;DHT22;33336;36.728;-4.414;2022-12-07T21:57:30;17.30;99.90
47618;DHT22;33336;36.728;-4.414;2022-12-07T22:02:33;17.30;99.90
47618;DHT22;33336;36.728;-4.414;2022-12-07T22:07:36;17.30;99.90
47618;DHT22;33336;36.728;-4.414;2022-12-07T22:12:40;17.30;99.90
47618;DHT22;33336;36.728;-4.414;2022-12-07T22:17:44;17.30;99.90
47618;DHT22;33336;36.728;-4.414;2022-12-07T22:22:47;17.30;99.90
47618;DHT22;33336;36.728;-4.414;2022-12-07T22:27:52;17.20;99.90
47618;DHT22;33336;36.728;-4.414;2022-12-07T22:32:55;17.30;99.90
47618;DHT22;33336;36.728;-4.414;2022-12-07T22:38:00;17.30;99.90
47618;DHT22;33336;36.728;-4.414;2022-12-07T22:43:05;17.20;99.90
47618;DHT22;33336;36.728;-4.414;2022-12-07T22:48:08;17.20;99.90
47618;DHT22;33336;36.728;-4.414;2022-12-07T22:53:10;17.10;99.90
47618;DHT22;33336;36.728;-4.414;2022-12-07T22:58:16;17.10;99.90
47618;DHT22;33336;36.728;-4.414;2022-12-07T23:03:19;17.10;99.90
47618;DHT22;33336;36.728;-4.414;2022-12-07T23:08:22;17.10;99.90
47618;DHT22;33336;36.728;-4.414;2022-12-07T23:13:27;17.10;99.90
47618;DHT22;33336;36.728;-4.414;2022-12-07T23:18:38;16.90;99.90
47618;DHT22;33336;36.728;-4.414;2022-12-07T23:23:41;16.80;99.90
47618;DHT22;33336;36.728;-4.414;2022-12-07T23:28:46;16.70;99.90
47618;DHT22;33336;36.728;-4.414;2022-12-07T23:33:49;16.50;99.90
47618;DHT22;33336;36.728;-4.414;2022-12-07T23:38:54;16.60;99.90
47618;DHT22;33336;36.728;-4.414;2022-12-07T23:44:00;16.70;99.90
47618;DHT22;33336;36.728;-4.414;2022-12-07T23:49:04;16.70;99.90
47618;DHT22;33336;36.728;-4.414;2022-12-07T23:54:08;16.60;99.90
47618;DHT22;33336;36.728;-4.414;2022-12-07T23:59:13;16.70;99.90
